• Join FlightAware (Why Join?)
  • Login
  • US Flag 
03:04AM EST


 

Airport Tracker/Info


-or-


 

Live Flight TrackerFlight Track Log ✈ ASQ5245 ✈ 30-Apr-2013 ✈ KATL - KILM

Flight Track Log - Related Links

Times and Time Zones

All times are in EDT time to prevent confusion due to time zone crossing. See the ASQ5245 flight status page for this flight to view local times or setup timezone preferences in your user account.

Time Position Orientation Groundspeed Altitude Reporting Facility
EDT Latitude Longitude Course Direction KTS MPH feet Rate Location/Type
08:26AM 33.6333 -84.3833 90° East 175 201 2,700  Level Atlanta TRACON
08:27AM 33.6333 -84.3000 90° East 276 318 4,700 2,600 Climbing Atlanta TRACON
08:28AM 33.6333 -84.2000 90° East 283 326 7,900 2,878 Climbing Atlanta TRACON
08:29AM 33.6336 -84.1011 90° East 305 351 10,600 1,854 Climbing Atlanta Center
08:30AM 33.6147 -84.0039 103° East 316 364 11,700 1,350 Climbing Atlanta Center
08:31AM 33.5917 -83.8842 103° East 341 392 13,300 1,700 Climbing Atlanta Center
08:32AM 33.5706 -83.7644 102° East 361 415 15,100 1,800 Climbing Atlanta Center
08:33AM 33.5514 -83.6425 101° East 366 421 16,900 1,700 Climbing Atlanta Center
08:34AM 33.5636 -83.5203 83° East 366 421 18,500 1,650 Climbing Atlanta Center
08:35AM 33.5817 -83.3981 80° East 372 428 20,200 1,550 Climbing Atlanta Center
08:36AM 33.5956 -83.2781 82° East 372 428 21,600 1,200 Climbing Atlanta Center
08:37AM 33.6114 -83.1383 82° East 377 434 22,600 1,000 Climbing Atlanta Center
08:38AM 33.6292 -83.0083 81° East 384 442 23,600 1,050 Climbing Atlanta Center
08:39AM 33.6447 -82.8761 82° East 394 453 24,700 700 Climbing Atlanta Center
08:40AM 33.6622 -82.7361 81° East 405 466 25,000 118 Climbing Atlanta Center
08:42AM 33.6878 -82.5206 82° East 405 466 25,000  Level Jacksonville Center
08:43AM 33.7058 -82.3633 82° East 439 505 25,000  Level Jacksonville Center
08:44AM 33.7242 -82.2258 81° East 458 527 25,000  Level Jacksonville Center
08:45AM 33.7419 -82.0758 82° East 463 533 25,000  Level Jacksonville Center
08:46AM 33.7617 -81.9208 81° East 463 533 25,000  Level Jacksonville Center
08:47AM 33.7792 -81.7681 82° East 463 533 25,000  Level Jacksonville Center
08:48AM 33.8050 -81.6178 78° East 463 533 25,000  Level Jacksonville Center
08:49AM 33.8325 -81.4650 78° East 468 539 25,000  Level Jacksonville Center
08:50AM 33.8600 -81.3144 78° East 468 539 25,000  Level Jacksonville Center
08:51AM 33.8872 -81.1639 78° East 468 539 25,000  Level Jacksonville Center
08:52AM 33.9181 -80.9981 77° East 468 539 25,000  Level Jacksonville Center
08:53AM 33.9431 -80.8475 79° East 462 532 25,000  Level Jacksonville Center
08:54AM 33.9697 -80.6964 78° East 462 532 25,000  Level Jacksonville Center
08:55AM 33.9961 -80.5456 78° East 457 526 25,000  Level Jacksonville Center
08:56AM 34.0203 -80.3944 79° East 457 526 25,000  Level Jacksonville Center
08:57AM 34.0483 -80.2383 78° East 457 526 25,000  Level Jacksonville Center
08:58AM 34.0722 -80.0847 79° East 457 526 25,000 -50 Level Jacksonville Center
08:59AM 34.0964 -79.9511 78° East 462 532 24,900 -300 Descending Jacksonville Center
09:00AM 34.1239 -79.7919 78° East 462 532 24,400 -750 Descending Jacksonville Center
09:01AM 34.1492 -79.6356 79° East 467 537 23,400 -1,000 Descending Jacksonville Center
09:02AM 34.1722 -79.4817 80° East 472 543 22,400 -1,550 Descending Jacksonville Center
09:03AM 34.1989 -79.3200 79° East 452 520 20,300 -2,168 Descending Jacksonville Center
09:04AM 34.2281 -79.1258 80° East 436 502 16,800 -2,323 Descending Washington Center
09:05AM 34.2467 -78.9936 80° East 413 475 14,300 -2,672 Descending Washington Center
09:06AM 34.2736 -78.8464 77° East 406 467 11,500 -1,664 Descending Washington Center
09:07AM 34.2936 -78.7267 79° East 388 447 11,000 -298 Descending Washington Center
09:08AM 34.3044 -78.6214 83° East 369 425 10,900 -496 Descending Washington Center
09:09AM 34.3117 -78.5061 86° East 351 404 10,000 -908 Descending Washington Center
09:10AM 34.3033 -78.4103 96° East 319 367 9,100 -1,150 Descending Washington Center
09:11AM 34.2783 -78.3289 110° East 280 322 7,700 -1,438 Descending Washington Center
09:12AM 34.2528 -78.2503 111° Southeast 263 303 6,200 -1,636 Descending Washington Center
09:13AM 34.2253 -78.1714 113° Southeast 251 289 4,400 -1,636 Descending Washington Center
09:14AM 34.1958 -78.0953 115° Southeast 251 289 2,900 -915 Descending Washington Center
09:15AM 34.1697 -78.0367 118° Southeast 230 265 2,600 -559 Descending Washington Center
09:16AM 34.2042 -77.9925 47° Northeast 165 190 1,800 -800 Descending Washington Center
09:18AM 34.2706 -77.9026 35° Northeast  Level Estimated